createdAt,value
2019-05-30T00:00:16.080Z,13.00
2019-05-30T00:02:33.287Z,12.92
2019-05-30T00:05:02.750Z,12.93
2019-05-30T00:07:31.922Z,12.90
2019-05-30T00:10:02.819Z,12.80
2019-05-30T00:12:32.184Z,12.79
2019-05-30T00:15:01.332Z,12.59
2019-05-30T00:17:30.508Z,12.54
2019-05-30T00:20:01.004Z,12.48
2019-05-30T00:22:30.126Z,12.36
2019-05-30T00:25:00.026Z,12.37
2019-05-30T00:27:29.409Z,12.32
2019-05-30T00:29:59.286Z,12.23
2019-05-30T00:32:28.652Z,12.20
2019-05-30T00:34:58.135Z,12.20
2019-05-30T00:37:27.243Z,12.25
2019-05-30T00:39:57.759Z,12.23
2019-05-30T00:42:26.921Z,12.29
2019-05-30T00:44:56.111Z,12.21
2019-05-30T00:47:25.149Z,12.17
2019-05-30T00:49:54.481Z,12.14
2019-05-30T00:52:23.574Z,12.10
2019-05-30T00:54:52.840Z,12.07
2019-05-30T00:57:22.048Z,12.04
2019-05-30T00:59:51.158Z,11.99
2019-05-30T01:02:20.536Z,11.94
2019-05-30T01:04:49.630Z,11.95
2019-05-30T01:07:18.836Z,11.96
2019-05-30T01:09:48.162Z,12.01
2019-05-30T01:12:17.242Z,11.95
2019-05-30T01:14:46.674Z,11.85
2019-05-30T01:17:15.752Z,11.80
2019-05-30T01:19:44.995Z,11.78
2019-05-30T01:22:14.332Z,11.77
2019-05-30T01:24:43.756Z,11.66
2019-05-30T01:27:12.823Z,11.53
2019-05-30T01:29:41.853Z,11.43
2019-05-30T01:32:30.089Z,11.38
2019-05-30T01:35:01.954Z,11.37
2019-05-30T01:37:31.195Z,11.31
2019-05-30T01:40:00.279Z,11.21
2019-05-30T01:42:29.343Z,11.24
2019-05-30T01:45:00.121Z,11.05
2019-05-30T01:47:29.389Z,10.96
2019-05-30T01:49:58.429Z,10.65
2019-05-30T01:52:27.512Z,10.75
2019-05-30T01:54:56.535Z,10.82
2019-05-30T01:57:25.756Z,10.79
2019-05-30T01:59:54.924Z,10.71
2019-05-30T02:02:24.235Z,10.75
2019-05-30T02:04:53.319Z,10.75
2019-05-30T02:07:22.425Z,10.76
2019-05-30T02:09:52.083Z,10.72
2019-05-30T02:12:21.305Z,10.66
2019-05-30T02:14:50.471Z,10.65
2019-05-30T02:17:19.515Z,10.68
2019-05-30T02:19:48.781Z,10.63
2019-05-30T02:22:18.025Z,10.58
2019-05-30T02:24:47.189Z,10.58
2019-05-30T02:27:16.498Z,10.56
2019-05-30T02:29:45.545Z,10.58
2019-05-30T02:32:14.752Z,10.53
2019-05-30T02:34:44.035Z,10.53
2019-05-30T02:37:13.321Z,10.49
2019-05-30T02:39:42.608Z,10.43
2019-05-30T02:42:11.883Z,10.39
2019-05-30T02:44:40.958Z,10.34
2019-05-30T02:47:11.585Z,10.15
2019-05-30T02:49:40.821Z,10.20
2019-05-30T02:52:10.821Z,10.13
2019-05-30T02:54:40.948Z,10.18
2019-05-30T02:57:10.674Z,10.21
2019-05-30T02:59:41.361Z,10.24
2019-05-30T03:02:15.218Z,10.21
2019-05-30T03:04:41.527Z,10.23
2019-05-30T03:07:12.533Z,10.18
2019-05-30T03:09:41.963Z,10.20
2019-05-30T03:12:13.200Z,10.14
2019-05-30T03:14:42.040Z,10.20
2019-05-30T03:17:12.584Z,10.02
2019-05-30T03:19:41.844Z,10.04
2019-05-30T03:22:12.239Z,10.10
2019-05-30T03:24:41.835Z,10.07
2019-05-30T03:27:12.325Z,10.01
2019-05-30T03:29:42.066Z,9.99
2019-05-30T03:32:56.181Z,9.99
2019-05-30T03:34:43.735Z,10.10
2019-05-30T03:37:23.144Z,10.01
2019-05-30T03:39:44.478Z,9.98
2019-05-30T03:42:15.687Z,9.96
2019-05-30T03:44:44.774Z,9.94
2019-05-30T03:47:15.675Z,9.94
2019-05-30T03:49:46.214Z,9.92
2019-05-30T03:52:17.543Z,9.96
2019-05-30T03:54:47.262Z,10.01
2019-05-30T03:57:22.988Z,10.02
2019-05-30T03:59:57.963Z,10.02
2019-05-30T04:02:55.363Z,10.01
2019-05-30T04:05:14.180Z,10.04
2019-05-30T04:07:48.579Z,10.10
2019-05-30T04:10:20.005Z,10.06
2019-05-30T04:13:00.770Z,10.12
2019-05-30T04:15:33.835Z,10.07
2019-05-30T04:18:02.913Z,10.12
2019-05-30T04:20:32.379Z,10.15
2019-05-30T04:23:01.563Z,10.19
2019-05-30T04:25:30.805Z,10.30
2019-05-30T04:28:00.354Z,10.44
2019-05-30T04:30:29.396Z,10.50
2019-05-30T04:33:16.203Z,10.52
2019-05-30T04:35:29.604Z,10.56
2019-05-30T04:37:58.877Z,10.59
2019-05-30T04:40:28.208Z,10.59
2019-05-30T04:42:57.286Z,10.54
2019-05-30T04:45:28.367Z,10.56
2019-05-30T04:47:57.710Z,10.64
2019-05-30T04:50:26.795Z,10.79
2019-05-30T04:52:56.265Z,10.79
2019-05-30T04:55:25.298Z,10.83
2019-05-30T04:57:54.633Z,10.85
2019-05-30T05:00:23.939Z,10.90
2019-05-30T05:02:53.138Z,10.75
2019-05-30T05:05:26.285Z,10.62
2019-05-30T05:07:52.963Z,10.62
2019-05-30T05:10:22.528Z,10.64
2019-05-30T05:12:51.825Z,10.81
2019-05-30T05:15:22.631Z,10.92
2019-05-30T05:17:51.694Z,11.13
2019-05-30T05:20:21.469Z,11.23
2019-05-30T05:22:50.630Z,11.45
2019-05-30T05:25:19.796Z,11.65
2019-05-30T05:27:49.158Z,11.60
2019-05-30T05:30:18.372Z,11.57
2019-05-30T05:32:47.407Z,11.62
2019-05-30T05:35:16.868Z,11.72
2019-05-30T05:37:45.924Z,11.88
2019-05-30T05:40:16.047Z,11.98
2019-05-30T05:42:45.523Z,12.16
2019-05-30T05:45:14.635Z,12.35
2019-05-30T05:47:43.860Z,12.46
2019-05-30T05:50:13.638Z,12.68
2019-05-30T05:52:42.660Z,12.67
2019-05-30T05:55:12.477Z,12.81
2019-05-30T05:57:41.662Z,13.03
2019-05-30T06:00:11.166Z,13.18
2019-05-30T06:02:40.247Z,13.38
2019-05-30T06:05:09.401Z,13.44
2019-05-30T06:07:38.541Z,13.61
2019-05-30T06:10:08.002Z,13.88
2019-05-30T06:12:37.187Z,13.91
2019-05-30T06:15:06.609Z,14.07
2019-05-30T06:17:35.758Z,14.17
2019-05-30T06:20:05.329Z,14.27
2019-05-30T06:22:34.377Z,14.31
2019-05-30T06:25:04.307Z,14.39
2019-05-30T06:27:33.402Z,14.71
2019-05-30T06:30:02.528Z,14.87
2019-05-30T06:32:31.680Z,15.15
2019-05-30T06:35:01.019Z,15.27
2019-05-30T06:37:30.266Z,15.15
2019-05-30T06:39:59.578Z,15.35
2019-05-30T06:42:30.202Z,15.36
2019-05-30T06:44:59.384Z,15.71
2019-05-30T06:47:28.525Z,15.85
2019-05-30T06:49:57.606Z,16.11
2019-05-30T06:52:27.133Z,16.27
2019-05-30T06:54:56.186Z,16.50
2019-05-30T06:57:25.437Z,16.73
2019-05-30T06:59:54.503Z,16.85
2019-05-30T07:02:24.243Z,17.14
2019-05-30T07:04:54.216Z,17.30
2019-05-30T07:07:25.041Z,17.50
2019-05-30T07:09:54.339Z,17.73
2019-05-30T07:12:23.367Z,17.79
2019-05-30T07:14:52.424Z,17.96
2019-05-30T07:17:21.701Z,18.12
2019-05-30T07:19:50.849Z,18.36
2019-05-30T07:22:20.084Z,18.60
2019-05-30T07:24:49.394Z,18.71
2019-05-30T07:27:18.464Z,18.77
2019-05-30T07:29:47.841Z,18.79
2019-05-30T07:32:16.989Z,18.59
2019-05-30T07:34:46.279Z,18.72
2019-05-30T07:37:15.423Z,18.87
2019-05-30T07:39:44.770Z,19.07
2019-05-30T07:42:15.743Z,19.21
2019-05-30T07:44:44.936Z,19.42
2019-05-30T07:47:14.166Z,19.35
2019-05-30T07:49:43.500Z,19.60
2019-05-30T07:52:12.719Z,19.83
2019-05-30T07:54:41.919Z,20.02
2019-05-30T07:57:11.214Z,20.11
2019-05-30T07:59:40.367Z,20.30
2019-05-30T08:02:09.642Z,20.50
2019-05-30T08:04:42.050Z,20.53
2019-05-30T08:07:11.117Z,20.52
2019-05-30T08:09:40.520Z,20.71
2019-05-30T08:12:09.647Z,20.76
2019-05-30T08:14:39.685Z,20.74
2019-05-30T08:17:08.964Z,20.93
2019-05-30T08:19:38.302Z,21.10
2019-05-30T08:22:07.468Z,21.10
2019-05-30T08:24:36.571Z,21.07
2019-05-30T08:27:06.063Z,21.19
2019-05-30T08:29:36.365Z,21.37
2019-05-30T08:32:05.743Z,21.45
2019-05-30T08:34:34.748Z,21.39
2019-05-30T08:37:03.838Z,21.57
2019-05-30T08:39:33.019Z,21.77
2019-05-30T08:42:02.151Z,21.63
2019-05-30T08:44:31.638Z,21.62
2019-05-30T08:47:00.796Z,21.43
2019-05-30T08:49:29.945Z,21.59
2019-05-30T08:51:58.981Z,21.77
2019-05-30T08:54:28.228Z,21.46
2019-05-30T08:56:57.325Z,21.55
2019-05-30T08:59:26.483Z,21.44
2019-05-30T09:01:55.776Z,21.62
2019-05-30T09:04:25.178Z,21.87
2019-05-30T09:06:54.362Z,21.96
2019-05-30T09:09:23.492Z,22.10
2019-05-30T09:11:52.686Z,22.20
2019-05-30T09:14:22.052Z,22.22
2019-05-30T09:16:51.208Z,22.40
2019-05-30T09:19:20.439Z,22.58
2019-05-30T09:21:49.570Z,22.34
2019-05-30T09:24:18.813Z,22.31
2019-05-30T09:26:50.318Z,22.43
2019-05-30T09:29:19.100Z,22.47
2019-05-30T09:31:48.737Z,22.69
2019-05-30T09:34:17.887Z,22.92
2019-05-30T09:36:47.015Z,23.18
2019-05-30T09:39:16.066Z,22.95
2019-05-30T09:41:45.713Z,22.93
2019-05-30T09:44:14.804Z,23.23
2019-05-30T09:46:44.223Z,23.43
2019-05-30T09:49:13.350Z,23.54
2019-05-30T09:51:43.616Z,23.57
2019-05-30T09:54:13.348Z,23.63
2019-05-30T09:56:43.868Z,23.70
2019-05-30T09:59:13.704Z,23.73
2019-05-30T10:01:44.247Z,23.87
2019-05-30T10:04:13.463Z,23.77
2019-05-30T10:06:43.592Z,23.35
2019-05-30T10:09:13.654Z,23.54
2019-05-30T10:11:44.195Z,23.07
2019-05-30T10:14:14.307Z,23.36
2019-05-30T10:16:47.561Z,23.56
2019-05-30T10:19:14.431Z,23.58
2019-05-30T10:21:45.452Z,23.72
2019-05-30T10:24:14.341Z,23.94
2019-05-30T10:26:43.367Z,24.05
2019-05-30T10:29:12.400Z,24.04
2019-05-30T10:31:41.576Z,23.95
2019-05-30T10:34:10.742Z,23.98
2019-05-30T10:36:44.295Z,24.29
2019-05-30T10:39:11.029Z,24.40
2019-05-30T10:41:40.358Z,24.44
2019-05-30T10:44:09.436Z,24.57
2019-05-30T10:46:48.622Z,24.09
2019-05-30T10:49:31.512Z,24.03
2019-05-30T10:51:49.604Z,24.08
2019-05-30T10:54:19.132Z,24.35
2019-05-30T10:56:48.781Z,24.47
2019-05-30T10:59:19.496Z,24.46
2019-05-30T11:01:50.233Z,24.45
2019-05-30T11:04:20.139Z,24.57
2019-05-30T11:07:11.060Z,24.74
2019-05-30T11:09:36.316Z,24.93
2019-05-30T11:12:05.473Z,25.03
2019-05-30T11:14:34.526Z,25.08
2019-05-30T11:17:03.786Z,25.15
2019-05-30T11:19:32.853Z,25.00
2019-05-30T11:22:01.927Z,24.70
2019-05-30T11:24:31.274Z,24.30
2019-05-30T11:27:00.363Z,24.48
2019-05-30T11:29:29.816Z,24.22
2019-05-30T11:31:59.135Z,24.47
2019-05-30T11:34:28.222Z,24.74
2019-05-30T11:36:57.352Z,24.96
2019-05-30T11:39:26.435Z,24.90
2019-05-30T11:41:55.778Z,25.25
2019-05-30T11:44:25.052Z,25.19
2019-05-30T11:46:54.223Z,25.02
2019-05-30T11:49:23.537Z,24.94
2019-05-30T11:51:53.675Z,25.02
2019-05-30T11:54:23.001Z,25.16
2019-05-30T11:56:52.089Z,25.09
2019-05-30T11:59:21.382Z,25.01
2019-05-30T12:01:50.456Z,24.99
2019-05-30T12:04:20.834Z,25.09
2019-05-30T12:06:51.138Z,25.33
2019-05-30T12:09:20.858Z,25.42
2019-05-30T12:11:50.964Z,25.46
2019-05-30T12:14:21.600Z,25.49
2019-05-30T12:16:51.139Z,25.39
2019-05-30T12:19:20.428Z,25.29
2019-05-30T12:21:49.559Z,25.43
2019-05-30T12:24:18.605Z,25.31
2019-05-30T12:26:47.722Z,25.31
2019-05-30T12:29:16.859Z,25.31
2019-05-30T12:31:45.988Z,25.21
2019-05-30T12:34:15.293Z,25.35
2019-05-30T12:36:44.397Z,25.29
2019-05-30T12:39:13.788Z,25.50
2019-05-30T12:41:43.088Z,25.57
2019-05-30T12:44:12.115Z,25.65
2019-05-30T12:46:41.485Z,25.58
2019-05-30T12:49:10.586Z,25.53
2019-05-30T12:51:39.861Z,25.37
2019-05-30T12:54:09.139Z,25.37
2019-05-30T12:56:38.234Z,25.04
2019-05-30T12:59:07.543Z,24.44
2019-05-30T13:01:36.730Z,24.53
2019-05-30T13:04:07.255Z,24.53
2019-05-30T13:06:36.445Z,24.55
2019-05-30T13:09:08.422Z,24.73
2019-05-30T13:11:37.955Z,24.63
2019-05-30T13:14:07.368Z,24.64
2019-05-30T13:16:36.892Z,24.75
2019-05-30T13:19:06.391Z,24.65
2019-05-30T13:21:35.571Z,24.73
2019-05-30T13:24:06.027Z,24.84
2019-05-30T13:26:35.364Z,24.90
2019-05-30T13:29:04.491Z,24.75
2019-05-30T13:31:33.694Z,24.61
2019-05-30T13:34:03.349Z,24.19
2019-05-30T13:36:32.719Z,24.35
2019-05-30T13:39:03.150Z,24.43
2019-05-30T13:41:32.453Z,24.73
2019-05-30T13:44:04.410Z,24.58
2019-05-30T13:46:32.396Z,24.64
2019-05-30T13:49:02.602Z,24.84
2019-05-30T13:51:31.956Z,25.15
2019-05-30T13:54:01.136Z,25.07
2019-05-30T13:56:30.640Z,25.09
2019-05-30T13:58:59.783Z,25.16
2019-05-30T14:01:28.899Z,25.12
2019-05-30T14:03:58.243Z,25.08
2019-05-30T14:06:27.439Z,24.97
2019-05-30T14:08:56.590Z,24.87
2019-05-30T14:11:25.655Z,24.73
2019-05-30T14:13:54.851Z,24.66
2019-05-30T14:16:24.180Z,24.45
2019-05-30T14:18:53.412Z,24.42
2019-05-30T14:21:22.684Z,24.34
2019-05-30T14:23:51.839Z,24.28
2019-05-30T14:26:21.037Z,24.22
2019-05-30T14:28:50.288Z,24.12
2019-05-30T14:31:19.414Z,23.99
2019-05-30T14:33:48.811Z,23.91
2019-05-30T14:36:18.140Z,23.82
2019-05-30T14:38:57.894Z,23.84
2019-05-30T14:41:18.333Z,23.90
2019-05-30T14:43:47.380Z,24.05
2019-05-30T14:46:16.795Z,24.08
2019-05-30T14:48:45.933Z,23.97
2019-05-30T14:51:15.129Z,23.99
2019-05-30T14:53:44.481Z,23.91
2019-05-30T14:56:13.691Z,24.02
2019-05-30T14:58:42.798Z,24.05
2019-05-30T15:01:13.396Z,24.16
2019-05-30T15:03:43.171Z,24.21
2019-05-30T15:06:15.877Z,24.20
2019-05-30T15:08:44.777Z,24.22
2019-05-30T15:11:13.947Z,24.25
2019-05-30T15:13:43.289Z,24.32
2019-05-30T15:16:13.006Z,24.23
2019-05-30T15:18:42.486Z,24.05
2019-05-30T15:21:12.536Z,23.97
2019-05-30T15:23:41.871Z,23.93
2019-05-30T15:26:12.089Z,24.05
2019-05-30T15:28:41.383Z,24.14
2019-05-30T15:31:10.584Z,23.92
2019-05-30T15:33:39.652Z,23.18
2019-05-30T15:36:09.075Z,23.87
2019-05-30T15:38:38.246Z,23.89
2019-05-30T15:41:08.664Z,23.45
2019-05-30T15:43:37.995Z,23.40
2019-05-30T15:46:07.821Z,23.34
2019-05-30T15:48:37.014Z,23.29
2019-05-30T15:51:06.251Z,23.28
2019-05-30T15:53:35.401Z,23.34
2019-05-30T15:56:04.805Z,23.27
2019-05-30T15:58:34.008Z,23.32
2019-05-30T16:01:03.101Z,23.41
2019-05-30T16:03:32.374Z,23.36
2019-05-30T16:06:01.460Z,23.35
2019-05-30T16:08:32.683Z,23.42
2019-05-30T16:11:02.168Z,23.46
2019-05-30T16:13:31.389Z,23.53
2019-05-30T16:16:00.452Z,23.32
2019-05-30T16:18:29.935Z,23.20
2019-05-30T16:20:59.058Z,23.09
2019-05-30T16:23:28.440Z,22.94
2019-05-30T16:25:57.849Z,22.92
2019-05-30T16:28:27.474Z,22.87
2019-05-30T16:30:56.879Z,22.83
2019-05-30T16:33:26.395Z,22.86
2019-05-30T16:35:57.416Z,22.92
2019-05-30T16:38:26.992Z,22.91
2019-05-30T16:40:56.714Z,22.80
2019-05-30T16:43:26.623Z,22.70
2019-05-30T16:45:56.110Z,22.78
2019-05-30T16:48:26.634Z,22.78
2019-05-30T16:50:55.790Z,22.72
2019-05-30T16:53:25.912Z,22.69
2019-05-30T16:55:55.166Z,22.58
2019-05-30T16:58:24.383Z,22.55
2019-05-30T17:00:53.471Z,22.57
2019-05-30T17:03:23.719Z,22.57
2019-05-30T17:05:53.986Z,22.63
2019-05-30T17:08:24.491Z,22.61
2019-05-30T17:10:53.862Z,22.59
2019-05-30T17:13:23.822Z,22.68
2019-05-30T17:15:52.993Z,22.76
2019-05-30T17:18:22.419Z,22.71
2019-05-30T17:20:51.850Z,22.60
2019-05-30T17:23:21.368Z,22.53
2019-05-30T17:25:50.426Z,22.54
2019-05-30T17:28:20.344Z,22.36
2019-05-30T17:30:49.771Z,22.41
2019-05-30T17:33:21.541Z,22.39
2019-05-30T17:35:50.179Z,22.37
2019-05-30T17:38:20.405Z,22.23
2019-05-30T17:40:49.838Z,22.25
2019-05-30T17:43:19.289Z,22.18
2019-05-30T17:45:48.337Z,22.14
2019-05-30T17:48:17.524Z,22.11
2019-05-30T17:50:46.590Z,22.02
2019-05-30T17:53:15.854Z,21.92
2019-05-30T17:55:45.139Z,21.94
2019-05-30T17:58:14.253Z,21.87
2019-05-30T18:00:43.486Z,21.77
2019-05-30T18:03:12.857Z,21.71
2019-05-30T18:05:41.960Z,21.68
2019-05-30T18:08:11.130Z,21.71
2019-05-30T18:10:52.969Z,21.65
2019-05-30T18:13:11.511Z,21.69
2019-05-30T18:15:40.829Z,21.65
2019-05-30T18:18:09.927Z,21.69
2019-05-30T18:20:48.292Z,21.67
2019-05-30T18:23:11.326Z,21.58
2019-05-30T18:25:40.372Z,21.54
2019-05-30T18:28:09.518Z,21.49
2019-05-30T18:30:40.958Z,21.47
2019-05-30T18:33:09.999Z,21.43
2019-05-30T18:35:39.298Z,21.42
2019-05-30T18:38:08.568Z,21.39
2019-05-30T18:40:39.643Z,21.39
2019-05-30T18:43:08.837Z,21.36
2019-05-30T18:45:40.008Z,21.38
2019-05-30T18:48:11.106Z,21.32
2019-05-30T18:50:40.784Z,21.37
2019-05-30T18:53:10.562Z,21.31
2019-05-30T18:55:39.741Z,21.22
2019-05-30T18:58:09.094Z,21.14
2019-05-30T19:00:38.450Z,21.08
2019-05-30T19:03:07.575Z,21.03
2019-05-30T19:05:37.102Z,20.95
2019-05-30T19:08:06.904Z,20.88
2019-05-30T19:10:36.588Z,20.83
2019-05-30T19:13:05.873Z,20.76
2019-05-30T19:15:34.947Z,20.72
2019-05-30T19:18:04.020Z,20.68
2019-05-30T19:20:33.913Z,20.62
2019-05-30T19:23:03.573Z,20.60
2019-05-30T19:25:33.970Z,20.61
2019-05-30T19:28:03.226Z,20.58
2019-05-30T19:30:32.862Z,20.56
2019-05-30T19:33:02.083Z,20.50
2019-05-30T19:35:31.444Z,20.54
2019-05-30T19:38:00.703Z,20.51
2019-05-30T19:40:29.902Z,20.47
2019-05-30T19:42:58.991Z,20.45
2019-05-30T19:45:28.128Z,20.40
2019-05-30T19:47:57.450Z,20.34
2019-05-30T19:50:26.577Z,20.28
2019-05-30T19:52:56.039Z,20.22
2019-05-30T19:55:25.184Z,20.16
2019-05-30T19:57:54.255Z,20.09
2019-05-30T20:00:23.836Z,20.05
2019-05-30T20:02:52.969Z,19.98
2019-05-30T20:05:22.138Z,19.93
2019-05-30T20:07:51.299Z,19.87
2019-05-30T20:10:20.570Z,19.81
2019-05-30T20:12:49.826Z,19.76
2019-05-30T20:15:18.994Z,19.72
2019-05-30T20:17:48.179Z,19.68
2019-05-30T20:20:17.670Z,19.66
2019-05-30T20:22:46.840Z,19.66
2019-05-30T20:25:16.227Z,19.61
2019-05-30T20:27:45.305Z,19.58
2019-05-30T20:30:15.039Z,19.53
2019-05-30T20:32:44.258Z,19.50
2019-05-30T20:35:13.975Z,19.46
2019-05-30T20:37:44.907Z,19.41
2019-05-30T20:40:14.446Z,19.52
2019-05-30T20:42:43.506Z,19.43
2019-05-30T20:45:14.478Z,19.37
2019-05-30T20:47:44.458Z,19.34
2019-05-30T20:50:15.164Z,19.33
2019-05-30T20:52:45.630Z,19.30
2019-05-30T20:55:16.589Z,19.18
2019-05-30T20:57:46.908Z,19.21
2019-05-30T21:00:16.978Z,19.16
2019-05-30T21:02:47.161Z,19.15
2019-05-30T21:05:16.865Z,19.15
2019-05-30T21:07:46.610Z,19.07
2019-05-30T21:10:15.930Z,19.01
2019-05-30T21:12:47.794Z,18.95
2019-05-30T21:15:16.712Z,18.90
2019-05-30T21:17:46.867Z,18.81
2019-05-30T21:20:16.424Z,18.72
2019-05-30T21:22:46.696Z,18.70
2019-05-30T21:25:15.989Z,18.66
2019-05-30T21:27:45.320Z,18.59
2019-05-30T21:30:15.033Z,18.56
2019-05-30T21:32:46.277Z,18.49
2019-05-30T21:35:15.617Z,18.45
2019-05-30T21:37:45.819Z,18.39
2019-05-30T21:40:15.122Z,18.33
2019-05-30T21:42:57.842Z,18.26
2019-05-30T21:45:15.293Z,18.21
2019-05-30T21:47:44.823Z,18.20
2019-05-30T21:50:15.885Z,18.17
2019-05-30T21:52:46.328Z,18.12
2019-05-30T21:55:18.002Z,18.05
2019-05-30T21:57:48.138Z,18.00
2019-05-30T22:00:18.800Z,17.99
2019-05-30T22:02:53.288Z,17.99
2019-05-30T22:05:22.763Z,17.88
2019-05-30T22:07:51.829Z,17.78
2019-05-30T22:10:21.115Z,17.79
2019-05-30T22:12:50.361Z,17.73
2019-05-30T22:15:19.573Z,17.69
2019-05-30T22:17:49.849Z,17.67
2019-05-30T22:20:18.978Z,17.60
2019-05-30T22:22:48.240Z,17.54
2019-05-30T22:25:17.297Z,17.53
2019-05-30T22:27:46.806Z,17.51
2019-05-30T22:30:15.982Z,17.49
2019-05-30T22:32:45.096Z,17.47
2019-05-30T22:35:14.275Z,17.38
2019-05-30T22:37:44.703Z,17.28
2019-05-30T22:40:13.798Z,17.27
2019-05-30T22:42:44.053Z,17.16
2019-05-30T22:45:13.466Z,17.09
2019-05-30T22:47:42.732Z,17.01
2019-05-30T22:50:11.906Z,16.95
2019-05-30T22:52:40.933Z,16.90
2019-05-30T22:55:10.145Z,16.89
2019-05-30T22:57:39.448Z,16.84
2019-05-30T23:00:08.964Z,16.78
2019-05-30T23:02:38.123Z,16.72
2019-05-30T23:05:07.232Z,16.63
2019-05-30T23:07:36.346Z,16.50
2019-05-30T23:10:05.869Z,16.41
2019-05-30T23:12:34.953Z,16.28
2019-05-30T23:15:04.358Z,16.24
2019-05-30T23:17:33.419Z,16.19
2019-05-30T23:20:02.495Z,16.12
2019-05-30T23:22:31.551Z,15.99
2019-05-30T23:25:00.635Z,15.91
2019-05-30T23:27:29.922Z,15.91
2019-05-30T23:29:59.112Z,15.87
2019-05-30T23:32:28.373Z,15.79
2019-05-30T23:34:58.660Z,15.81
2019-05-30T23:37:27.788Z,15.84
2019-05-30T23:39:57.030Z,15.70
2019-05-30T23:42:26.123Z,15.68
2019-05-30T23:44:55.522Z,15.56
2019-05-30T23:47:24.651Z,15.56
2019-05-30T23:49:53.946Z,15.55
2019-05-30T23:52:23.436Z,15.53
2019-05-30T23:54:52.582Z,15.49
2019-05-30T23:57:21.633Z,15.45
2019-05-30T23:59:52.701Z,15.39
